Time;durP1;ratioP1;P1;durP2;ratioP2;P2;SDS_P1;SDS_P2;PMS_P1;PMS_P2;Temp;Humidity;BMP_temperature;BMP_pressure;BME280_temperature;BME280_humidity;BME280_pressure;Samples;Min_cycle;Max_cycle;Signal;HPM_P1;HPM_P2
2021/11/23 00:00:47;;;;;;;3.38;0.75;;;14.70;68.90;;;;;;4811056;29;20046;-72
2021/11/23 00:03:17;;;;;;;7.70;0.82;;;14.60;68.40;;;;;;4826541;29;20162;-73
2021/11/23 00:05:44;;;;;;;7.07;0.85;;;14.60;68.50;;;;;;4819684;29;20418;-72
2021/11/23 00:08:11;;;;;;;7.45;0.75;;;14.60;68.70;;;;;;4810766;29;20050;-71
2021/11/23 00:10:41;;;;;;;5.97;1.15;;;14.60;68.70;;;;;;4826496;29;20054;-72
2021/11/23 00:13:09;;;;;;;5.72;1.15;;;14.70;68.80;;;;;;4826182;29;20055;-72
2021/11/23 00:15:35;;;;;;;5.03;1.00;;;14.70;68.80;;;;;;4826339;29;20046;-71
2021/11/23 00:18:06;;;;;;;4.60;0.80;;;14.60;68.80;;;;;;4826776;29;20042;-73
2021/11/23 00:20:33;;;;;;;4.10;0.70;;;14.60;68.80;;;;;;4826122;29;20057;-71
2021/11/23 00:22:59;;;;;;;3.58;0.68;;;14.60;68.80;;;;;;4826355;29;20099;-73
2021/11/23 00:25:26;;;;;;;5.45;0.80;;;14.70;68.90;;;;;;4826452;29;20050;-72
2021/11/23 00:27:53;;;;;;;5.47;1.15;;;14.70;69.00;;;;;;4826625;29;20372;-72
2021/11/23 00:30:19;;;;;;;4.47;0.70;;;14.70;69.00;;;;;;4810607;29;20132;-73
2021/11/23 00:32:45;;;;;;;3.45;0.82;;;14.70;69.00;;;;;;4809876;29;20530;-71
2021/11/23 00:35:11;;;;;;;5.50;1.02;;;14.60;69.00;;;;;;4810350;29;20058;-72
2021/11/23 00:37:36;;;;;;;2.83;0.63;;;14.60;69.10;;;;;;4809907;29;20141;-72
2021/11/23 00:40:03;;;;;;;3.38;0.65;;;14.60;69.10;;;;;;4826375;29;20381;-73
2021/11/23 00:42:30;;;;;;;5.90;0.80;;;14.60;69.20;;;;;;4809829;29;20047;-72
2021/11/23 00:44:56;;;;;;;3.80;0.60;;;14.60;69.30;;;;;;4826215;29;20404;-73
2021/11/23 00:47:22;;;;;;;3.88;1.05;;;14.60;69.50;;;;;;4825959;29;20134;-72
2021/11/23 00:49:48;;;;;;;5.00;0.90;;;14.60;69.30;;;;;;4825645;29;20062;-74
2021/11/23 00:52:13;;;;;;;3.67;0.60;;;14.60;69.40;;;;;;4826425;29;20493;-72
2021/11/23 00:54:39;;;;;;;6.43;1.02;;;14.60;69.40;;;;;;4825923;29;20576;-73
2021/11/23 00:57:05;;;;;;;2.58;0.60;;;14.60;69.40;;;;;;4826284;29;20057;-72
2021/11/23 00:59:34;;;;;;;4.53;0.65;;;14.60;69.40;;;;;;4810066;29;20129;-73
2021/11/23 01:02:00;;;;;;;5.28;1.02;;;14.60;69.40;;;;;;4809938;29;20078;-72
2021/11/23 01:04:25;;;;;;;4.28;0.70;;;14.60;69.40;;;;;;4809707;29;20054;-73
2021/11/23 01:06:51;;;;;;;4.45;0.82;;;14.60;69.50;;;;;;4825662;29;20064;-72
2021/11/23 01:09:17;;;;;;;5.93;0.95;;;14.60;69.50;;;;;;4809748;29;20060;-72
2021/11/23 01:11:43;;;;;;;5.30;1.20;;;14.60;69.60;;;;;;4809493;29;20081;-73
2021/11/23 01:14:08;;;;;;;5.00;1.13;;;14.60;69.70;;;;;;4810016;29;20379;-72
2021/11/23 01:16:35;;;;;;;4.45;0.68;;;14.60;69.80;;;;;;4825756;29;20103;-72
2021/11/23 01:19:02;;;;;;;5.65;1.17;;;14.60;69.80;;;;;;4809390;29;20141;-72
2021/11/23 01:21:29;;;;;;;5.70;1.38;;;14.60;69.80;;;;;;4809559;29;20049;-72
2021/11/23 01:23:55;;;;;;;6.05;0.95;;;14.60;69.80;;;;;;4825553;29;20058;-72
2021/11/23 01:26:21;;;;;;;5.85;1.20;;;14.60;69.80;;;;;;4825692;29;20050;-73
2021/11/23 01:28:47;;;;;;;5.57;1.30;;;14.60;69.80;;;;;;4809157;29;20484;-72
2021/11/23 01:31:13;;;;;;;5.90;0.80;;;14.60;69.80;;;;;;4825700;29;20042;-72
2021/11/23 01:33:39;;;;;;;7.93;1.15;;;14.60;69.90;;;;;;4809406;29;20057;-73
2021/11/23 01:36:04;;;;;;;4.00;1.17;;;14.60;69.80;;;;;;4825540;29;20421;-71
2021/11/23 01:38:31;;;;;;;5.15;0.93;;;14.60;69.80;;;;;;4825184;29;20058;-72
2021/11/23 01:40:58;;;;;;;9.13;1.52;;;14.60;69.90;;;;;;4825276;29;20068;-73
2021/11/23 01:43:24;;;;;;;4.18;0.70;;;14.60;69.90;;;;;;4825590;29;20110;-71
2021/11/23 01:45:50;;;;;;;5.95;1.00;;;14.60;69.80;;;;;;4809514;29;20061;-71
2021/11/23 01:48:16;;;;;;;5.95;1.08;;;14.60;69.80;;;;;;4808625;29;20110;-72
2021/11/23 01:50:41;;;;;;;7.50;1.33;;;14.50;69.80;;;;;;4809552;29;20054;-73
2021/11/23 01:53:08;;;;;;;5.43;1.00;;;14.60;69.90;;;;;;4825219;29;20062;-74
2021/11/23 01:55:36;;;;;;;6.32;1.23;;;14.60;70.40;;;;;;4825196;29;20057;-72
2021/11/23 01:58:05;;;;;;;6.57;1.20;;;14.50;69.80;;;;;;4793929;29;20066;-72
2021/11/23 02:00:32;;;;;;;8.02;1.27;;;14.50;69.80;;;;;;4825497;29;20053;-73
2021/11/23 02:02:59;;;;;;;5.30;1.40;;;14.50;69.80;;;;;;4825034;29;20054;-72
2021/11/23 02:05:25;;;;;;;6.15;0.95;;;14.50;69.80;;;;;;4825256;29;20046;-72
2021/11/23 02:07:51;;;;;;;6.38;1.00;;;14.50;69.80;;;;;;4808944;29;20057;-72
2021/11/23 02:10:16;;;;;;;6.32;1.20;;;14.50;69.80;;;;;;4824885;29;20066;-73
2021/11/23 02:12:43;;;;;;;7.32;1.42;;;14.50;69.80;;;;;;4809426;29;20363;-72
2021/11/23 02:15:10;;;;;;;6.93;1.27;;;14.50;69.80;;;;;;4808795;29;20515;-73
2021/11/23 02:17:37;;;;;;;6.78;1.17;;;14.50;69.80;;;;;;4809183;29;20046;-73
2021/11/23 02:20:08;;;;;;;9.48;1.42;;;14.50;69.80;;;;;;4809236;29;20054;-72
2021/11/23 02:22:34;;;;;;;7.00;1.30;;;14.50;69.90;;;;;;4824907;29;20042;-71
2021/11/23 02:24:59;;;;;;;7.82;1.17;;;14.50;70.00;;;;;;4809211;29;20064;-72
2021/11/23 02:27:25;;;;;;;8.75;1.08;;;14.50;70.00;;;;;;4824542;29;20131;-72
2021/11/23 02:29:51;;;;;;;9.38;1.30;;;14.50;70.10;;;;;;4824815;29;20463;-73
2021/11/23 02:32:17;;;;;;;5.90;1.08;;;14.50;70.20;;;;;;4808955;29;20065;-72
2021/11/23 02:34:43;;;;;;;5.00;1.20;;;14.40;70.20;;;;;;4825539;29;20050;-72
2021/11/23 02:37:09;;;;;;;7.68;1.20;;;14.50;70.30;;;;;;4812196;29;20125;-73
2021/11/23 02:39:34;;;;;;;4.35;1.00;;;14.50;70.30;;;;;;4812078;29;20490;-72
2021/11/23 02:42:00;;;;;;;7.60;1.23;;;14.40;70.30;;;;;;4828211;29;20054;-73
2021/11/23 02:44:26;;;;;;;4.97;0.82;;;14.50;70.30;;;;;;4827708;29;20474;-73
2021/11/23 02:46:52;;;;;;;5.10;0.98;;;14.50;70.40;;;;;;4828006;29;20082;-73
2021/11/23 02:49:21;;;;;;;4.65;0.90;;;14.50;70.40;;;;;;4828240;29;20058;-73
2021/11/23 02:51:48;;;;;;;4.20;0.65;;;14.40;70.40;;;;;;4827891;29;20054;-72
2021/11/23 02:54:14;;;;;;;3.92;0.95;;;14.40;70.40;;;;;;4827841;29;20158;-72
2021/11/23 02:56:40;;;;;;;5.82;0.85;;;14.40;70.40;;;;;;4811787;29;20089;-72
2021/11/23 02:59:05;;;;;;;4.13;0.73;;;14.40;70.50;;;;;;4827736;29;20042;-73
2021/11/23 03:01:31;;;;;;;3.38;0.60;;;14.40;70.40;;;;;;4811930;29;20433;-73
2021/11/23 03:03:57;;;;;;;4.38;0.90;;;14.40;70.50;;;;;;4811973;29;20065;-74
2021/11/23 03:06:24;;;;;;;3.67;0.90;;;14.40;70.60;;;;;;4827847;29;20078;-72
2021/11/23 03:08:51;;;;;;;2.40;0.52;;;14.40;70.50;;;;;;4827081;29;20100;-72
2021/11/23 03:11:20;;;;;;;6.90;1.08;;;14.40;70.50;;;;;;4827753;29;20054;-73
2021/11/23 03:13:46;;;;;;;4.88;0.98;;;14.40;70.60;;;;;;4827363;29;20385;-74
2021/11/23 03:16:12;;;;;;;3.78;0.80;;;14.40;70.60;;;;;;4827341;29;20051;-71
2021/11/23 03:18:37;;;;;;;3.92;0.80;;;14.40;70.50;;;;;;4827263;29;20432;-72
2021/11/23 03:21:04;;;;;;;8.73;1.00;;;14.40;70.50;;;;;;4827012;29;20092;-73
2021/11/23 03:23:29;;;;;;;4.13;0.98;;;14.40;70.50;;;;;;4827059;29;20054;-72
2021/11/23 03:25:55;;;;;;;5.25;0.47;;;14.40;70.50;;;;;;4827074;29;20099;-72
2021/11/23 03:28:21;;;;;;;2.58;0.68;;;14.30;70.50;;;;;;4827285;29;20072;-73
2021/11/23 03:30:46;;;;;;;4.97;0.65;;;14.40;70.50;;;;;;4827211;29;20489;-71
2021/11/23 03:33:12;;;;;;;4.18;0.57;;;14.30;70.50;;;;;;4811437;29;20062;-72
2021/11/23 03:35:41;;;;;;;4.75;1.17;;;14.40;70.50;;;;;;4811522;29;20050;-71
2021/11/23 03:38:10;;;;;;;5.65;0.90;;;14.40;70.40;;;;;;4826865;29;20474;-72
2021/11/23 03:40:37;;;;;;;3.13;0.60;;;14.40;70.40;;;;;;4811363;29;20058;-73
2021/11/23 03:43:04;;;;;;;3.83;0.90;;;14.30;70.40;;;;;;4826909;29;20379;-73
2021/11/23 03:45:31;;;;;;;7.95;1.10;;;14.40;70.40;;;;;;4796097;29;20061;-71
2021/11/23 03:47:57;;;;;;;5.63;0.85;;;14.30;70.40;;;;;;4825819;29;20485;-71
2021/11/23 03:50:25;;;;;;;3.38;1.00;;;14.30;70.30;;;;;;4827038;29;20050;-72
2021/11/23 03:52:51;;;;;;;5.72;0.70;;;14.30;70.40;;;;;;4826860;29;20046;-71
2021/11/23 03:55:19;;;;;;;4.90;0.80;;;14.30;70.40;;;;;;4826901;29;20477;-72
2021/11/23 03:57:47;;;;;;;4.32;0.77;;;14.30;70.40;;;;;;4811158;29;20054;-72
2021/11/23 04:00:15;;;;;;;9.57;1.15;;;14.30;70.30;;;;;;4826734;29;20151;-72
2021/11/23 04:02:41;;;;;;;3.38;0.60;;;14.30;70.30;;;;;;4826700;29;20061;-71
2021/11/23 04:05:08;;;;;;;4.30;0.70;;;14.20;70.30;;;;;;4810212;29;20078;-73
2021/11/23 04:07:34;;;;;;;4.85;0.75;;;14.30;70.30;;;;;;4826658;29;20053;-72
2021/11/23 04:10:00;;;;;;;3.85;0.60;;;14.30;70.30;;;;;;4826499;29;20069;-73
2021/11/23 04:12:26;;;;;;;1.90;0.50;;;14.20;70.20;;;;;;4826762;29;20046;-72
2021/11/23 04:14:52;;;;;;;6.90;0.60;;;14.20;70.20;;;;;;4810799;29;20340;-71
2021/11/23 04:17:18;;;;;;;4.82;0.50;;;14.20;70.20;;;;;;4826336;29;20047;-74
2021/11/23 04:19:43;;;;;;;3.28;0.30;;;14.20;70.20;;;;;;4826385;29;20069;-72
2021/11/23 04:22:09;;;;;;;1.70;0.50;;;14.20;70.20;;;;;;4826076;29;20103;-72
2021/11/23 04:24:35;;;;;;;4.80;0.68;;;14.20;70.20;;;;;;4810315;29;20038;-72
2021/11/23 04:27:01;;;;;;;5.35;1.10;;;14.20;70.20;;;;;;4826143;29;20072;-72
2021/11/23 04:29:27;;;;;;;2.33;0.40;;;14.20;70.20;;;;;;4826299;29;20141;-72
2021/11/23 04:31:53;;;;;;;3.95;0.60;;;14.20;70.20;;;;;;4826489;29;20093;-73
2021/11/23 04:34:19;;;;;;;3.67;0.50;;;14.20;70.30;;;;;;4810127;29;20050;-72
2021/11/23 04:36:45;;;;;;;4.90;0.35;;;14.20;70.20;;;;;;4810251;29;20050;-73
2021/11/23 04:39:11;;;;;;;4.05;0.52;;;14.20;70.20;;;;;;4810475;29;20430;-72
2021/11/23 04:41:41;;;;;;;3.28;0.50;;;14.20;70.20;;;;;;4795063;29;20061;-72
2021/11/23 04:44:07;;;;;;;3.47;0.40;;;14.20;70.10;;;;;;4826316;29;20042;-73
2021/11/23 04:46:33;;;;;;;3.47;0.40;;;14.10;70.10;;;;;;4809807;29;20077;-72
2021/11/23 04:48:59;;;;;;;2.70;0.50;;;14.20;70.20;;;;;;4809772;29;20225;-74
2021/11/23 04:51:24;;;;;;;2.90;0.40;;;14.20;70.20;;;;;;4826133;29;20061;-73
2021/11/23 04:53:51;;;;;;;3.40;0.80;;;14.20;70.20;;;;;;4826114;29;20437;-72
2021/11/23 04:56:17;;;;;;;7.18;0.82;;;14.20;70.20;;;;;;4795010;29;20050;-73
2021/11/23 04:58:42;;;;;;;4.55;0.50;;;14.10;70.10;;;;;;4825617;29;20129;-72
2021/11/23 05:01:08;;;;;;;2.47;0.47;;;14.20;70.10;;;;;;4825976;29;20635;-72
2021/11/23 05:03:34;;;;;;;3.88;0.60;;;14.10;70.00;;;;;;4809759;29;20046;-73
2021/11/23 05:06:00;;;;;;;2.50;0.63;;;14.10;70.00;;;;;;4825637;29;20129;-72
2021/11/23 05:08:25;;;;;;;4.18;0.70;;;14.10;69.90;;;;;;4825767;29;20133;-73
2021/11/23 05:10:51;;;;;;;3.92;0.50;;;14.10;69.80;;;;;;4825752;29;20436;-71
2021/11/23 05:13:17;;;;;;;6.35;0.95;;;14.10;69.80;;;;;;4825846;29;20054;-71
2021/11/23 05:15:43;;;;;;;2.85;0.52;;;14.10;69.70;;;;;;4825619;29;20054;-73
2021/11/23 05:18:08;;;;;;;4.32;0.65;;;14.10;69.60;;;;;;4809854;29;20132;-72
2021/11/23 05:20:34;;;;;;;3.60;0.80;;;14.10;69.60;;;;;;4825897;29;20121;-71
2021/11/23 05:23:00;;;;;;;4.82;1.00;;;14.10;69.60;;;;;;4826107;29;20050;-72
2021/11/23 05:25:25;;;;;;;6.00;1.02;;;14.00;69.50;;;;;;4825604;29;20132;-73
2021/11/23 05:27:51;;;;;;;4.82;0.80;;;14.00;69.50;;;;;;4825190;29;20094;-70
2021/11/23 05:30:17;;;;;;;6.53;1.00;;;14.00;69.40;;;;;;4825703;29;20062;-73
2021/11/23 05:32:43;;;;;;;5.95;0.80;;;14.00;69.80;;;;;;4825388;29;20046;-75
2021/11/23 05:35:10;;;;;;;6.13;1.08;;;14.00;71.20;;;;;;4809552;29;20053;-73
2021/11/23 05:37:36;;;;;;;4.95;0.50;;;14.10;71.50;;;;;;4809389;29;20069;-78
2021/11/23 05:40:03;;;;;;;5.25;0.70;;;14.10;71.10;;;;;;4824729;29;20046;-78
2021/11/23 05:42:29;;;;;;;6.50;0.93;;;14.30;71.00;;;;;;4825493;29;20097;-75
2021/11/23 05:44:55;;;;;;;15.30;0.90;;;14.60;70.80;;;;;;4809504;29;20082;-77
2021/11/23 05:47:21;;;;;;;8.02;0.85;;;14.80;70.60;;;;;;4825559;29;20046;-76
2021/11/23 05:49:47;;;;;;;5.53;0.60;;;15.10;70.30;;;;;;4825266;29;20081;-77
2021/11/23 05:52:12;;;;;;;4.30;0.75;;;15.40;70.00;;;;;;4825303;29;20056;-74
2021/11/23 05:54:38;;;;;;;4.05;0.40;;;15.70;70.00;;;;;;4809177;29;20046;-72
2021/11/23 05:57:04;;;;;;;4.70;0.63;;;15.90;69.70;;;;;;4809314;29;20107;-79
2021/11/23 05:59:30;;;;;;;4.50;0.63;;;16.10;69.70;;;;;;4794051;29;20085;-71
2021/11/23 06:01:55;;;;;;;4.80;0.63;;;16.30;69.60;;;;;;4825330;29;20444;-74
2021/11/23 06:04:21;;;;;;;6.93;0.93;;;16.30;69.60;;;;;;4808829;29;20046;-75
2021/11/23 06:06:48;;;;;;;5.90;0.90;;;16.40;69.60;;;;;;4808834;29;20050;-76
2021/11/23 06:09:13;;;;;;;8.40;0.75;;;16.50;69.70;;;;;;4808971;29;20119;-79
2021/11/23 06:11:39;;;;;;;5.32;0.82;;;16.60;69.90;;;;;;4828693;29;20387;-75
2021/11/23 06:14:05;;;;;;;7.25;1.05;;;16.70;70.10;;;;;;4828096;29;20050;-77
2021/11/23 06:16:34;;;;;;;6.30;0.60;;;16.80;70.30;;;;;;4828499;29;20046;-77
2021/11/23 06:18:59;;;;;;;7.70;0.80;;;16.80;70.50;;;;;;4828358;29;20054;-75
2021/11/23 06:21:26;;;;;;;6.55;0.43;;;16.90;70.50;;;;;;4828559;29;20368;-74
2021/11/23 06:23:53;;;;;;;7.40;1.33;;;17.00;70.50;;;;;;4828226;29;20054;-78
2021/11/23 06:26:19;;;;;;;5.28;0.70;;;17.10;71.10;;;;;;4828112;29;20054;-76
2021/11/23 06:28:46;;;;;;;6.20;0.70;;;17.20;70.50;;;;;;4827887;29;20144;-75
2021/11/23 06:31:11;;;;;;;5.53;0.60;;;17.30;70.30;;;;;;4812005;29;20051;-75
2021/11/23 06:33:37;;;;;;;3.80;0.70;;;17.40;70.30;;;;;;4828397;29;20050;-76
2021/11/23 06:36:03;;;;;;;3.17;0.43;;;17.50;70.30;;;;;;4812239;29;20050;-76
2021/11/23 06:38:29;;;;;;;8.85;0.88;;;17.60;70.20;;;;;;4828027;29;20066;-77
2021/11/23 06:40:55;;;;;;;3.80;0.57;;;17.70;70.10;;;;;;4812221;29;20062;-75
2021/11/23 06:43:20;;;;;;;11.43;0.95;;;17.70;70.10;;;;;;4827745;29;20387;-72
2021/11/23 06:45:46;;;;;;;8.82;0.93;;;17.70;69.80;;;;;;4827579;29;20061;-73
2021/11/23 06:48:12;;;;;;;4.68;0.47;;;17.80;69.70;;;;;;4811668;29;20066;-74
2021/11/23 06:50:40;;;;;;;9.40;1.58;;;17.80;69.60;;;;;;4827611;29;20442;-73
2021/11/23 06:53:08;;;;;;;8.65;0.93;;;17.80;69.60;;;;;;4812035;29;20050;-73
2021/11/23 06:55:34;;;;;;;9.52;1.10;;;17.80;69.40;;;;;;4827785;29;20421;-73
2021/11/23 06:58:00;;;;;;;10.55;1.20;;;17.90;69.40;;;;;;4827692;29;20130;-74
2021/11/23 07:00:26;;;;;;;9.68;1.23;;;18.00;69.50;;;;;;4827446;29;20054;-73
2021/11/23 07:02:52;;;;;;;8.30;1.05;;;18.00;69.20;;;;;;4827778;29;20050;-74
2021/11/23 07:05:18;;;;;;;11.30;1.60;;;18.10;68.70;;;;;;4827621;29;20463;-73
2021/11/23 07:07:44;;;;;;;8.70;1.02;;;18.10;65.70;;;;;;4820762;29;20049;-80
2021/11/23 07:10:11;;;;;;;29.95;2.05;;;18.10;69.00;;;;;;4811925;29;20099;-78
2021/11/23 07:12:37;;;;;;;11.02;1.48;;;18.20;68.90;;;;;;4811349;29;20459;-80
2021/11/23 07:15:04;;;;;;;4.95;0.80;;;18.30;67.50;;;;;;4796453;29;20129;-72
2021/11/23 07:17:30;;;;;;;6.95;0.70;;;18.30;66.30;;;;;;4827355;29;20057;-72
2021/11/23 07:19:56;;;;;;;5.43;1.00;;;18.30;65.80;;;;;;4827624;29;20042;-73
2021/11/23 07:22:22;;;;;;;9.02;1.13;;;18.30;65.80;;;;;;4827369;29;20134;-73
2021/11/23 07:24:47;;;;;;;6.65;0.80;;;18.20;65.90;;;;;;4827137;29;20260;-73
2021/11/23 07:27:13;;;;;;;7.45;0.70;;;18.10;66.00;;;;;;4827163;29;20203;-73
2021/11/23 07:29:39;;;;;;;5.35;0.30;;;18.00;66.30;;;;;;4826734;29;20073;-74
2021/11/23 07:32:05;;;;;;;6.05;0.93;;;17.90;66.40;;;;;;4827123;29;20061;-73
2021/11/23 07:34:31;;;;;;;5.95;0.80;;;17.90;66.60;;;;;;4826708;29;20064;-75
2021/11/23 07:36:57;;;;;;;4.15;0.60;;;17.80;66.80;;;;;;4827392;29;20050;-74
2021/11/23 07:39:22;;;;;;;6.60;0.80;;;17.70;67.00;;;;;;4827205;29;20054;-73
2021/11/23 07:41:48;;;;;;;2.90;0.52;;;17.60;67.10;;;;;;4826828;29;20134;-73
2021/11/23 07:44:14;;;;;;;4.97;0.68;;;17.60;67.20;;;;;;4827055;29;20129;-74
2021/11/23 07:46:39;;;;;;;3.20;0.68;;;17.60;67.20;;;;;;4826768;29;20097;-73
2021/11/23 07:49:06;;;;;;;3.67;0.60;;;17.60;67.30;;;;;;4827121;29;20463;-72
2021/11/23 07:51:33;;;;;;;6.55;0.90;;;17.60;67.20;;;;;;4827160;29;20364;-72
2021/11/23 07:53:59;;;;;;;5.93;0.85;;;17.50;67.20;;;;;;4826792;29;20080;-72
2021/11/23 07:56:25;;;;;;;8.98;1.27;;;17.50;67.30;;;;;;4826936;29;20141;-74
2021/11/23 07:58:51;;;;;;;4.43;0.93;;;17.50;67.40;;;;;;4824271;29;21020;-74
2021/11/23 08:01:17;;;;;;;5.00;0.70;;;17.60;67.80;;;;;;4826416;29;20055;-73
2021/11/23 08:03:43;;;;;;;6.00;0.50;;;17.60;67.90;;;;;;4801925;29;20062;-72
2021/11/23 08:06:10;;;;;;;5.70;0.40;;;17.60;67.80;;;;;;4824038;29;20129;-73
2021/11/23 08:08:37;;;;;;;4.47;0.70;;;17.60;68.00;;;;;;4826573;29;20058;-72
2021/11/23 08:11:03;;;;;;;3.70;0.50;;;17.60;68.10;;;;;;4826432;29;20183;-76
2021/11/23 08:13:29;;;;;;;6.10;0.70;;;17.50;64.30;;;;;;4810593;29;20054;-76
2021/11/23 08:15:55;;;;;;;7.57;0.68;;;17.50;67.80;;;;;;4826089;29;20147;-77
2021/11/23 08:18:21;;;;;;;3.05;0.88;;;17.60;68.50;;;;;;4810572;29;20051;-76
2021/11/23 08:20:47;;;;;;;4.78;0.50;;;17.60;68.60;;;;;;4810698;29;20473;-77
2021/11/23 08:23:14;;;;;;;5.65;0.70;;;17.60;68.70;;;;;;4809993;29;20061;-76
2021/11/23 08:25:39;;;;;;;9.38;0.73;;;17.60;68.70;;;;;;4826449;29;20419;-77
2021/11/23 08:28:06;;;;;;;3.42;0.25;;;17.60;68.90;;;;;;4825621;29;20164;-77
2021/11/23 08:30:32;;;;;;;3.22;0.57;;;17.60;68.80;;;;;;4825006;29;20069;-78
2021/11/23 08:32:58;;;;;;;3.72;0.60;;;17.70;69.00;;;;;;4807843;29;20054;-76
2021/11/23 08:35:24;;;;;;;3.50;0.82;;;17.70;68.50;;;;;;4808927;29;20078;-75
2021/11/23 08:37:50;;;;;;;5.18;0.73;;;17.70;68.40;;;;;;4825326;29;20046;-80
2021/11/23 08:40:16;;;;;;;7.20;0.70;;;17.70;68.40;;;;;;4825125;29;20050;-80
2021/11/23 08:42:43;;;;;;;4.90;1.00;;;17.70;68.50;;;;;;4840106;29;20050;-80
2021/11/23 08:45:16;;;;;;;6.07;0.80;;;17.60;69.30;;;;;;4809738;29;20064;-78
2021/11/23 08:47:43;;;;;;;6.63;0.60;;;17.60;69.00;;;;;;4808400;29;20054;-81
2021/11/23 08:50:11;;;;;;;6.78;0.55;;;17.70;69.10;;;;;;4825056;29;20496;-80
2021/11/23 08:52:40;;;;;;;4.45;0.30;;;17.70;69.10;;;;;;4824702;29;20146;-82
2021/11/23 08:55:06;;;;;;;3.88;0.57;;;17.70;69.10;;;;;;4809117;29;20137;-77
2021/11/23 08:57:33;;;;;;;4.13;0.75;;;17.60;69.00;;;;;;4825071;29;20114;-79
2021/11/23 09:02:58;;;;;;;3.15;0.30;;;17.60;69.00;;;;;;4797869;29;20126;-76
2021/11/23 09:05:24;;;;;;;3.13;0.70;;;17.60;68.90;;;;;;4808240;29;20135;-77
2021/11/23 09:07:51;;;;;;;3.03;0.70;;;17.60;68.80;;;;;;4804482;29;20419;-77
2021/11/23 09:10:22;;;;;;;5.00;0.88;;;17.60;68.70;;;;;;4801272;29;20082;-77
2021/11/23 09:12:53;;;;;;;4.25;0.80;;;17.60;68.60;;;;;;4818711;29;20468;-76
2021/11/23 09:15:19;;;;;;;6.28;0.70;;;17.60;68.60;;;;;;4809295;29;20050;-75
2021/11/23 09:17:46;;;;;;;2.10;0.40;;;17.50;68.60;;;;;;4805009;29;20062;-77
2021/11/23 09:20:13;;;;;;;6.28;0.65;;;17.50;68.60;;;;;;4794914;29;20069;-78
2021/11/23 09:22:40;;;;;;;5.72;0.80;;;17.40;68.80;;;;;;4806958;29;20046;-76
2021/11/23 09:25:07;;;;;;;4.18;0.70;;;17.40;68.80;;;;;;4808474;29;20118;-78
2021/11/23 09:27:33;;;;;;;4.82;0.77;;;17.40;69.00;;;;;;4787547;29;1130946;-75
2021/11/23 09:29:59;;;;;;;4.53;0.35;;;17.40;69.20;;;;;;4809846;29;20073;-76
2021/11/23 09:32:26;;;;;;;5.88;0.60;;;17.30;69.40;;;;;;4806719;29;20046;-78
2021/11/23 09:34:53;;;;;;;6.90;0.60;;;17.30;69.40;;;;;;4825839;29;20059;-74
2021/11/23 09:37:18;;;;;;;8.43;0.85;;;17.30;69.40;;;;;;4825976;29;20061;-76
2021/11/23 09:39:44;;;;;;;6.85;0.93;;;17.30;69.60;;;;;;4809904;29;20054;-76
2021/11/23 09:42:10;;;;;;;5.20;0.50;;;17.30;69.70;;;;;;4825877;29;20463;-74
2021/11/23 09:44:36;;;;;;;5.97;0.88;;;17.20;69.50;;;;;;4823749;29;20058;-76
2021/11/23 09:47:02;;;;;;;6.90;1.42;;;17.30;70.00;;;;;;4829089;29;20347;-75
2021/11/23 09:49:28;;;;;;;4.80;0.77;;;17.30;70.20;;;;;;4833597;29;20074;-75
2021/11/23 09:51:54;;;;;;;9.85;0.63;;;17.30;70.00;;;;;;4822573;29;20162;-74
2021/11/23 09:54:20;;;;;;;5.40;0.60;;;17.30;69.90;;;;;;4828059;29;20464;-79
2021/11/23 09:56:48;;;;;;;2.05;0.20;;;17.30;70.00;;;;;;4797830;29;20046;-78
2021/11/23 09:59:14;;;;;;;2.70;0.70;;;17.30;69.80;;;;;;4828528;29;20046;-78
2021/11/23 10:01:54;;;;;;;3.10;0.55;;;17.40;69.60;;;;;;4812991;29;20077;-79
2021/11/23 10:04:22;;;;;;;4.65;0.50;;;17.20;68.80;;;;;;4826581;29;20418;-76
2021/11/23 10:07:00;;;;;;;5.18;0.60;;;17.10;68.90;;;;;;4825094;29;20389;-77
2021/11/23 10:09:30;;;;;;;2.95;0.55;;;17.10;68.20;;;;;;4827489;29;20374;-76
2021/11/23 10:12:14;;;;;;;5.47;0.70;;;17.10;68.20;;;;;;4827530;29;20069;-75
2021/11/23 10:14:59;;;;;;;4.68;0.40;;;17.10;67.80;;;;;;4808688;29;20615;-75
2021/11/23 10:17:26;;;;;;;6.47;0.63;;;17.10;68.20;;;;;;4827479;29;20046;-75
2021/11/23 10:19:51;;;;;;;4.25;0.57;;;17.00;68.20;;;;;;4827754;29;20054;-76
2021/11/23 10:22:37;;;;;;;6.28;0.75;;;17.00;68.40;;;;;;4828329;29;20076;-76
2021/11/23 10:25:06;;;;;;;4.28;0.70;;;17.00;67.70;;;;;;4812156;29;20078;-74
2021/11/23 10:27:34;;;;;;;5.05;1.05;;;17.00;67.50;;;;;;4827386;29;20066;-73
2021/11/23 10:30:00;;;;;;;5.70;1.02;;;17.00;67.10;;;;;;4824931;29;20487;-75
2021/11/23 10:32:38;;;;;;;7.28;0.80;;;16.90;66.70;;;;;;4825134;29;20054;-75
2021/11/23 10:35:20;;;;;;;6.32;0.75;;;16.90;66.60;;;;;;4809976;29;20077;-74
2021/11/23 10:37:46;;;;;;;2.97;0.73;;;16.90;66.50;;;;;;4819831;29;20050;-74
2021/11/23 10:40:15;;;;;;;8.23;1.00;;;16.80;66.40;;;;;;4823106;29;20125;-76
2021/11/23 10:42:49;;;;;;;4.28;0.60;;;16.80;66.10;;;;;;4827587;29;20051;-75
2021/11/23 10:45:15;;;;;;;6.72;0.65;;;16.80;66.00;;;;;;4811971;29;20061;-74
2021/11/23 10:47:43;;;;;;;4.47;0.60;;;16.80;66.20;;;;;;4827508;29;20050;-74
2021/11/23 10:50:11;;;;;;;5.35;0.68;;;16.70;66.20;;;;;;4825161;29;20061;-74
2021/11/23 10:52:40;;;;;;;3.22;0.40;;;16.70;65.80;;;;;;4827529;29;20046;-72
2021/11/23 10:55:26;;;;;;;5.53;0.77;;;16.70;65.60;;;;;;4827382;29;20371;-74
2021/11/23 10:57:54;;;;;;;2.45;0.40;;;16.70;65.20;;;;;;4825158;29;20057;-73
2021/11/23 11:00:21;;;;;;;3.45;0.30;;;16.60;65.10;;;;;;4826366;29;20126;-73
2021/11/23 11:02:47;;;;;;;2.10;0.30;;;16.60;65.10;;;;;;4827282;29;20054;-74
2021/11/23 11:05:15;;;;;;;5.38;0.43;;;16.60;65.10;;;;;;4810779;29;20531;-73
2021/11/23 11:07:45;;;;;;;5.43;0.60;;;16.60;65.00;;;;;;4826966;29;20058;-71
2021/11/23 11:10:12;;;;;;;5.53;0.47;;;16.60;65.20;;;;;;4826850;29;20125;-74
2021/11/23 11:12:38;;;;;;;5.63;0.47;;;16.50;65.50;;;;;;4826927;29;20143;-72
2021/11/23 11:15:11;;;;;;;4.68;0.55;;;16.50;65.60;;;;;;4811242;29;20047;-74
2021/11/23 11:17:38;;;;;;;5.13;0.60;;;16.60;65.70;;;;;;4823777;29;20125;-74
2021/11/23 11:20:09;;;;;;;5.05;0.60;;;16.60;65.60;;;;;;4809145;29;20053;-73
2021/11/23 11:22:49;;;;;;;3.90;0.57;;;16.60;65.30;;;;;;4827632;29;20352;-73
2021/11/23 11:25:22;;;;;;;21.13;2.20;;;16.50;65.10;;;;;;4811573;29;20054;-74
2021/11/23 11:27:48;;;;;;;;;;;16.50;65.00;;;;;;4808108;29;20054;-74
2021/11/23 11:30:33;;;;;;;9.10;1.08;;;16.50;65.40;;;;;;4811357;29;19924;-73
2021/11/23 11:33:10;;;;;;;6.93;0.80;;;16.50;65.90;;;;;;4823989;29;20208;-75
2021/11/23 11:35:49;;;;;;;8.40;0.80;;;16.50;66.60;;;;;;4826103;29;20069;-74
2021/11/23 11:38:28;;;;;;;5.43;0.90;;;16.50;66.30;;;;;;4831526;29;20132;-72
2021/11/23 11:40:55;;;;;;;5.25;0.88;;;16.40;66.30;;;;;;4838499;29;20078;-73
2021/11/23 11:43:30;;;;;;;7.00;1.02;;;16.40;66.30;;;;;;4834561;29;20050;-73
2021/11/23 11:45:56;;;;;;;4.63;0.85;;;16.50;66.30;;;;;;4826040;29;20424;-74
2021/11/23 11:48:22;;;;;;;16.90;1.83;;;16.40;66.30;;;;;;4826604;29;20042;-73
2021/11/23 11:51:07;;;;;;;10.90;1.38;;;16.50;67.40;;;;;;4826979;29;20058;-72
2021/11/23 11:53:48;;;;;;;11.57;1.90;;;16.50;67.80;;;;;;4824108;29;20046;-77
2021/11/23 11:56:37;;;;;;;7.70;1.13;;;16.50;68.20;;;;;;4826897;29;20394;-78
2021/11/23 11:59:23;;;;;;;13.90;1.27;;;16.40;68.80;;;;;;4826520;29;20051;-73
2021/11/23 12:01:53;;;;;;;10.75;1.27;;;16.40;68.70;;;;;;4826646;29;20126;-70
2021/11/23 12:04:21;;;;;;;11.68;1.40;;;16.40;69.30;;;;;;4826673;29;20058;-72
2021/11/23 12:06:53;;;;;;;9.98;1.13;;;16.40;69.60;;;;;;4824298;29;20098;-70
2021/11/23 12:09:34;;;;;;;9.93;1.55;;;16.40;70.30;;;;;;4826258;29;20065;-70
2021/11/23 12:12:16;;;;;;;8.77;1.20;;;16.30;71.20;;;;;;4825178;29;20043;-72
2021/11/23 12:14:52;;;;;;;11.98;1.30;;;16.30;72.30;;;;;;4817975;29;20061;-71
2021/11/23 12:17:26;;;;;;;12.30;1.42;;;16.30;71.80;;;;;;4804261;29;20046;-71
2021/11/23 12:20:10;;;;;;;4.72;1.25;;;16.30;71.70;;;;;;4809747;29;20054;-70
2021/11/23 12:22:46;;;;;;;8.43;1.05;;;16.30;71.80;;;;;;4826100;29;20073;-71
2021/11/23 12:25:18;;;;;;;3.00;0.50;;;16.30;71.80;;;;;;4820920;29;20115;-72
2021/11/23 12:27:46;;;;;;;8.18;1.20;;;16.30;71.70;;;;;;4825832;29;20066;-70
2021/11/23 12:30:18;;;;;;;7.13;0.82;;;16.20;71.70;;;;;;4825658;29;20046;-70
2021/11/23 12:32:45;;;;;;;6.88;0.77;;;16.20;71.80;;;;;;4825519;29;20374;-71
2021/11/23 12:35:13;;;;;;;7.28;0.57;;;16.20;71.90;;;;;;4826054;29;20053;-71
2021/11/23 12:37:43;;;;;;;4.05;0.60;;;16.20;72.00;;;;;;4825739;29;20477;-73
2021/11/23 12:40:19;;;;;;;6.25;1.25;;;16.20;72.30;;;;;;4803146;29;20054;-71
2021/11/23 12:42:52;;;;;;;7.45;1.25;;;16.20;73.60;;;;;;4825005;29;20061;-70
2021/11/23 12:45:22;;;;;;;5.57;1.08;;;16.20;73.60;;;;;;4825860;29;20378;-71
2021/11/23 12:47:50;;;;;;;5.32;1.63;;;16.20;73.00;;;;;;4826032;29;20362;-73
2021/11/23 12:50:16;;;;;;;6.60;0.93;;;16.20;72.80;;;;;;4810176;29;20050;-70